Time;durP1;ratioP1;P1;durP2;ratioP2;P2;SDS_P1;SDS_P2;PMS_P1;PMS_P2;Temp;Humidity;BMP_temperature;BMP_pressure;BME280_temperature;BME280_humidity;BME280_pressure;Samples;Min_cycle;Max_cycle;Signal;HPM_P1;HPM_P2
2022/03/16 00:00:20;;;;;;;3.25;2.10;;;;;;;19.43;33.07;102257.84;7312101;19;129353;-49
2022/03/16 00:02:48;;;;;;;5.38;2.10;;;;;;;19.41;33.13;102259.97;7310195;19;129398;-51
2022/03/16 00:05:16;;;;;;;6.82;2.50;;;;;;;19.39;33.05;102265.72;7312288;19;129600;-51
2022/03/16 00:07:43;;;;;;;6.53;2.53;;;;;;;19.37;33.15;102257.63;7310163;19;129555;-48
2022/03/16 00:10:11;;;;;;;3.10;2.08;;;;;;;19.35;33.06;102267.25;7310895;19;129381;-50
2022/03/16 00:12:40;;;;;;;5.53;2.30;;;;;;;19.32;33.37;102260.19;7312520;19;129023;-48
2022/03/16 00:15:07;;;;;;;4.45;2.17;;;;;;;19.29;33.24;102262.56;7312665;19;129603;-51
2022/03/16 00:17:35;;;;;;;3.65;2.28;;;;;;;19.28;33.00;102263.63;7313517;19;129483;-49
2022/03/16 00:20:02;;;;;;;4.05;2.03;;;;;;;19.26;33.43;102261.09;7311664;19;129055;-49
2022/03/16 00:22:29;;;;;;;3.08;1.88;;;;;;;19.23;33.07;102261.50;7311488;19;129673;-51
2022/03/16 00:24:56;;;;;;;3.60;2.13;;;;;;;19.22;33.17;102265.34;7312530;19;130020;-54
2022/03/16 00:27:23;;;;;;;4.15;1.95;;;;;;;19.20;33.02;102265.56;7313330;19;130371;-55
2022/03/16 00:29:49;;;;;;;2.65;2.05;;;;;;;19.18;33.16;102270.47;7312791;19;129062;-51
2022/03/16 00:32:16;;;;;;;4.32;2.35;;;;;;;19.18;33.13;102269.63;7311186;19;129448;-50
2022/03/16 00:34:43;;;;;;;3.83;2.00;;;;;;;19.16;33.03;102266.22;7310783;19;130603;-49
2022/03/16 00:37:10;;;;;;;4.15;2.33;;;;;;;19.15;33.37;102264.50;7311801;19;129643;-49
2022/03/16 00:39:36;;;;;;;3.72;2.10;;;;;;;19.14;33.03;102262.78;7312510;19;129748;-51
2022/03/16 00:42:04;;;;;;;2.58;2.00;;;;;;;19.12;33.23;102249.16;7309635;19;129688;-52
2022/03/16 00:44:34;;;;;;;5.25;2.40;;;;;;;19.10;33.22;102244.88;7312398;19;129565;-51
2022/03/16 00:47:03;;;;;;;4.50;2.65;;;;;;;19.10;33.35;102242.97;7311095;19;130623;-50
2022/03/16 00:49:30;;;;;;;3.47;2.58;;;;;;;19.08;33.34;102243.16;7309172;19;129352;-51
2022/03/16 00:51:57;;;;;;;4.70;2.20;;;;;;;19.08;32.96;102243.16;7312453;19;129166;-50
2022/03/16 00:54:24;;;;;;;4.90;2.50;;;;;;;19.06;33.38;102239.78;7312030;19;132814;-52
2022/03/16 00:56:52;;;;;;;4.15;2.72;;;;;;;19.05;33.19;102240.84;7311358;19;129517;-50
2022/03/16 00:59:18;;;;;;;3.67;2.10;;;;;;;19.05;33.01;102234.44;7311873;19;128925;-53
2022/03/16 01:01:45;;;;;;;4.13;2.45;;;;;;;19.04;33.14;102228.06;7310579;19;129073;-51
2022/03/16 01:04:12;;;;;;;2.75;2.10;;;;;;;19.01;32.95;102225.69;7311505;19;130040;-51
2022/03/16 01:06:39;;;;;;;3.78;2.20;;;;;;;19.01;33.04;102231.25;7308685;19;129742;-54
2022/03/16 01:09:06;;;;;;;5.80;2.38;;;;;;;19.00;33.15;102226.78;7311863;19;128756;-49
2022/03/16 01:11:32;;;;;;;5.22;2.72;;;;;;;18.98;33.00;102228.91;7310461;19;130084;-51
2022/03/16 01:13:59;;;;;;;4.75;2.20;;;;;;;18.96;32.86;102227.44;7311881;19;129686;-50
2022/03/16 01:16:26;;;;;;;5.07;2.10;;;;;;;18.95;33.26;102222.94;7311407;19;129544;-50
2022/03/16 01:18:53;;;;;;;2.58;2.25;;;;;;;18.95;33.22;102228.50;7311681;19;129645;-51
2022/03/16 01:21:20;;;;;;;4.05;2.78;;;;;;;18.94;33.11;102226.78;7311641;19;130241;-50
2022/03/16 01:23:46;;;;;;;5.45;2.70;;;;;;;18.91;33.25;102217.00;7309465;19;129542;-48
2022/03/16 01:26:13;;;;;;;3.10;2.45;;;;;;;18.90;33.07;102215.28;7312002;19;130694;-52
2022/03/16 01:28:40;;;;;;;5.88;2.42;;;;;;;18.88;32.88;102217.41;7310215;19;129587;-49
2022/03/16 01:31:07;;;;;;;5.13;2.60;;;;;;;18.89;32.81;102221.91;7311169;19;129870;-48
2022/03/16 01:33:34;;;;;;;4.90;3.08;;;;;;;18.88;32.85;102228.50;7312072;19;129610;-48
2022/03/16 01:36:01;;;;;;;6.38;2.55;;;;;;;18.86;32.94;102222.31;7310658;19;130177;-52
2022/03/16 01:38:28;;;;;;;4.38;2.38;;;;;;;18.85;33.04;102232.56;7311408;19;129048;-50
2022/03/16 01:40:54;;;;;;;3.90;2.45;;;;;;;18.85;33.11;102220.63;7311385;19;129083;-49
2022/03/16 01:43:21;;;;;;;2.70;1.92;;;;;;;18.82;32.87;102215.53;7309323;19;130773;-53
2022/03/16 01:45:50;;;;;;;2.53;1.90;;;;;;;18.81;32.92;102216.59;7312399;19;130022;-50
2022/03/16 01:48:18;;;;;;;3.33;1.90;;;;;;;18.80;32.89;102218.50;7309797;19;128967;-51
2022/03/16 01:50:46;;;;;;;3.25;1.90;;;;;;;18.79;33.13;102222.31;7307961;19;129683;-51
2022/03/16 01:53:14;;;;;;;3.67;2.53;;;;;;;18.80;33.34;102217.66;7309861;19;129566;-51
2022/03/16 01:55:42;;;;;;;2.72;1.90;;;;;;;18.79;33.31;102210.41;7310223;19;131865;-49
2022/03/16 01:58:10;;;;;;;2.95;1.98;;;;;;;18.76;33.04;102215.31;7310037;19;129823;-49
2022/03/16 02:00:38;;;;;;;3.15;1.77;;;;;;;18.76;33.17;102209.75;7310062;19;129661;-49
2022/03/16 02:03:07;;;;;;;3.00;2.22;;;;;;;18.75;33.33;102213.59;7306220;19;130711;-51
2022/03/16 02:05:35;;;;;;;4.60;2.42;;;;;;;18.75;33.04;102216.38;7306522;19;129497;-52
2022/03/16 02:08:08;;;;;;;4.18;1.92;;;;;;;18.74;33.07;102214.66;7308268;19;129022;-50
2022/03/16 02:10:35;;;;;;;4.50;2.20;;;;;;;18.73;32.90;102212.97;7308489;19;131403;-52
2022/03/16 02:13:02;;;;;;;2.70;2.03;;;;;;;18.73;33.02;102223.22;7308852;19;131990;-50
2022/03/16 02:15:29;;;;;;;3.60;2.03;;;;;;;18.72;33.31;102216.78;7316307;19;129919;-49
2022/03/16 02:17:56;;;;;;;2.33;1.80;;;;;;;18.71;33.14;102220.63;7316862;19;128865;-50
2022/03/16 02:20:25;;;;;;;3.45;1.85;;;;;;;18.72;33.30;102211.25;7317405;19;129400;-50
2022/03/16 02:23:05;;;;;;;3.13;2.15;;;;;;;18.71;33.11;102209.53;7316263;19;131622;-51
2022/03/16 02:25:34;;;;;;;3.70;2.50;;;;;;;18.69;32.83;102210.84;7317056;19;130180;-48
2022/03/16 02:28:01;;;;;;;3.28;2.13;;;;;;;18.69;33.31;102214.47;7317344;19;130263;-49
2022/03/16 02:30:29;;;;;;;3.65;2.33;;;;;;;18.67;33.12;102202.75;7316111;19;129242;-49
2022/03/16 02:32:56;;;;;;;4.10;2.42;;;;;;;18.66;33.03;102203.81;7317370;19;129312;-50
2022/03/16 02:35:23;;;;;;;3.72;2.28;;;;;;;18.64;33.32;102208.72;7316819;19;129387;-51
2022/03/16 02:37:50;;;;;;;2.65;2.25;;;;;;;18.64;33.24;102213.41;7316047;19;128876;-50
2022/03/16 02:40:20;;;;;;;3.65;2.35;;;;;;;18.64;33.12;102210.66;7314923;19;129225;-51
2022/03/16 02:42:47;;;;;;;4.07;2.13;;;;;;;18.63;33.05;102200.63;7316121;19;129265;-50
2022/03/16 02:45:14;;;;;;;3.35;2.20;;;;;;;18.62;33.07;102208.06;7316205;19;131144;-49
2022/03/16 02:47:41;;;;;;;3.25;2.30;;;;;;;18.61;32.92;102204.47;7315996;19;129554;-50
2022/03/16 02:50:09;;;;;;;2.70;1.67;;;;;;;18.60;33.09;102196.34;7313984;19;129705;-53
2022/03/16 02:52:36;;;;;;;2.78;2.40;;;;;;;18.60;32.97;102196.34;7316297;19;131351;-50
2022/03/16 02:55:05;;;;;;;3.33;2.10;;;;;;;18.58;33.21;102198.50;7315765;19;130013;-52
2022/03/16 02:57:32;;;;;;;4.65;2.42;;;;;;;18.57;33.07;102197.63;7316805;19;129210;-49
2022/03/16 02:59:59;;;;;;;2.88;2.10;;;;;;;18.56;33.06;102192.31;7315669;19;129935;-51
2022/03/16 03:02:26;;;;;;;3.65;2.20;;;;;;;18.56;33.11;102195.09;7315356;19;129556;-49
2022/03/16 03:04:53;;;;;;;2.17;1.63;;;;;;;18.55;33.21;102190.59;7315414;19;130007;-51
2022/03/16 03:07:19;;;;;;;3.33;1.80;;;;;;;18.55;32.93;102190.59;7313544;19;128934;-50
2022/03/16 03:09:46;;;;;;;3.13;1.92;;;;;;;18.54;33.18;102183.34;7312445;19;130669;-51
2022/03/16 03:12:13;;;;;;;2.67;1.88;;;;;;;18.53;33.12;102181.66;7314456;19;130555;-50
2022/03/16 03:14:40;;;;;;;2.63;1.90;;;;;;;18.52;32.88;102177.16;7315392;19;129524;-53
2022/03/16 03:17:07;;;;;;;2.47;1.58;;;;;;;18.51;33.04;102183.78;7314701;19;129375;-50
2022/03/16 03:19:34;;;;;;;2.95;2.00;;;;;;;18.49;32.92;102174.81;7315103;19;129727;-48
2022/03/16 03:22:01;;;;;;;3.08;2.10;;;;;;;18.48;33.26;102182.31;7315301;19;129816;-50
2022/03/16 03:24:28;;;;;;;5.00;1.92;;;;;;;18.47;33.27;102180.59;7312506;19;130605;-50
2022/03/16 03:26:55;;;;;;;2.92;2.10;;;;;;;18.48;33.27;102184.19;7315231;19;130151;-50
2022/03/16 03:29:23;;;;;;;2.67;1.90;;;;;;;18.46;33.18;102185.28;7314915;19;129083;-50
2022/03/16 03:31:50;;;;;;;3.05;1.98;;;;;;;18.46;33.21;102184.44;7314434;19;129597;-51
2022/03/16 03:34:17;;;;;;;2.90;1.80;;;;;;;18.45;33.13;102186.38;7314668;19;129848;-51
2022/03/16 03:36:44;;;;;;;3.17;2.10;;;;;;;18.44;32.83;102175.47;7315031;19;129388;-49
2022/03/16 03:39:10;;;;;;;3.65;2.30;;;;;;;18.43;33.16;102174.63;7313752;19;129454;-49
2022/03/16 03:41:37;;;;;;;2.90;1.77;;;;;;;18.43;33.00;102169.09;7314667;19;129686;-50
2022/03/16 03:44:04;;;;;;;3.10;1.90;;;;;;;18.41;32.91;102174.00;7311394;19;130572;-52
2022/03/16 03:46:31;;;;;;;4.20;2.30;;;;;;;18.40;33.18;102175.06;7316021;19;129095;-49
2022/03/16 03:48:58;;;;;;;5.65;2.30;;;;;;;18.41;33.24;102182.31;7312297;19;130229;-52
2022/03/16 03:51:25;;;;;;;3.42;2.28;;;;;;;18.40;32.98;102177.81;7313917;19;130358;-48
2022/03/16 03:53:51;;;;;;;3.97;1.98;;;;;;;18.38;33.03;102182.69;7313840;19;129513;-53
2022/03/16 03:56:18;;;;;;;2.60;1.90;;;;;;;18.37;32.89;102172.66;7315327;19;130185;-53
2022/03/16 03:58:45;;;;;;;3.00;2.03;;;;;;;18.39;33.18;102180.78;7312257;19;129308;-50
2022/03/16 04:01:12;;;;;;;2.40;2.00;;;;;;;18.38;32.85;102182.69;7312800;19;129431;-49
2022/03/16 04:03:39;;;;;;;3.53;1.90;;;;;;;18.37;32.87;102183.75;7312412;19;129766;-50
2022/03/16 04:06:06;;;;;;;2.45;1.92;;;;;;;18.36;32.90;102179.28;7310661;19;129059;-49
2022/03/16 04:08:32;;;;;;;2.05;1.58;;;;;;;18.35;33.04;102185.88;7312758;19;129114;-52
2022/03/16 04:10:59;;;;;;;2.45;1.83;;;;;;;18.34;32.76;102181.41;7314022;19;130711;-49
2022/03/16 04:13:26;;;;;;;2.75;1.70;;;;;;;18.34;32.81;102175.03;7311820;19;129457;-49
2022/03/16 04:15:53;;;;;;;2.80;1.52;;;;;;;18.33;32.75;102178.88;7313514;19;129725;-51
2022/03/16 04:18:26;;;;;;;4.65;1.77;;;;;;;18.32;33.16;102178.03;7312726;19;128902;-53
2022/03/16 04:20:53;;;;;;;2.65;1.77;;;;;;;18.32;32.93;102178.03;7313266;19;129503;-49
2022/03/16 04:23:20;;;;;;;3.35;2.40;;;;;;;18.32;33.05;102169.72;7312501;19;129983;-51
2022/03/16 04:25:47;;;;;;;3.03;1.88;;;;;;;18.30;33.11;102164.38;7311458;19;129280;-50
2022/03/16 04:28:14;;;;;;;3.10;2.00;;;;;;;18.30;32.75;102169.91;7312279;19;129277;-49
2022/03/16 04:30:40;;;;;;;2.60;1.80;;;;;;;18.27;32.64;102164.81;7313148;19;131176;-49
2022/03/16 04:33:07;;;;;;;3.40;2.35;;;;;;;18.28;33.02;102162.88;7312914;19;130559;-49
2022/03/16 04:35:34;;;;;;;2.88;2.13;;;;;;;18.27;33.06;102166.72;7312444;19;130137;-50
2022/03/16 04:38:01;;;;;;;3.25;2.33;;;;;;;18.25;33.02;102150.31;7311610;19;132052;-51
2022/03/16 04:40:28;;;;;;;3.20;1.73;;;;;;;18.26;33.00;102137.31;7312543;19;130681;-50
2022/03/16 04:42:54;;;;;;;3.33;2.25;;;;;;;18.24;32.75;102143.06;7311829;19;133023;-49
2022/03/16 04:45:21;;;;;;;2.63;2.03;;;;;;;18.23;32.60;102141.38;7307858;19;130297;-51
2022/03/16 04:47:48;;;;;;;3.55;2.47;;;;;;;18.21;32.66;102143.50;7311795;19;130205;-50
2022/03/16 04:50:14;;;;;;;2.65;1.88;;;;;;;18.22;32.78;102144.34;7313760;19;130612;-50
2022/03/16 04:52:46;;;;;;;2.33;1.75;;;;;;;18.24;32.66;102151.38;7312222;19;131096;-49
2022/03/16 04:55:14;;;;;;;2.38;2.13;;;;;;;18.29;32.69;102145.19;7311706;19;129617;-49
2022/03/16 04:57:41;;;;;;;1.77;1.60;;;;;;;18.39;32.89;102155.84;7312649;19;129709;-52
2022/03/16 05:00:08;;;;;;;2.45;1.70;;;;;;;18.51;32.66;102158.84;7310401;19;130201;-50
2022/03/16 05:02:36;;;;;;;3.00;2.17;;;;;;;18.68;32.31;102146.25;7310212;19;129578;-51
2022/03/16 05:05:04;;;;;;;3.08;1.75;;;;;;;18.91;32.27;102158.75;7308472;19;133837;-59
2022/03/16 05:07:31;;;;;;;2.65;1.85;;;;;;;19.16;31.99;102161.63;7312694;19;130592;-50
2022/03/16 05:09:58;;;;;;;1.85;1.40;;;;;;;19.45;31.64;102164.09;7311886;19;131000;-52
2022/03/16 05:12:25;;;;;;;2.42;1.88;;;;;;;19.69;31.45;102154.97;7310543;19;131547;-50
2022/03/16 05:14:52;;;;;;;3.05;1.85;;;;;;;19.95;31.06;102160.56;7311405;19;128915;-51
2022/03/16 05:17:18;;;;;;;3.67;1.70;;;;;;;20.12;31.06;102167.28;7311592;19;129585;-52
2022/03/16 05:19:48;;;;;;;3.67;1.95;;;;;;;20.29;30.46;102166.72;7311160;19;129567;-50
2022/03/16 05:22:15;;;;;;;2.88;1.52;;;;;;;20.42;30.51;102168.56;7312009;19;129397;-49
2022/03/16 05:24:42;;;;;;;4.07;1.85;;;;;;;20.50;30.55;102161.81;7310022;19;129241;-50
2022/03/16 05:27:09;;;;;;;4.13;1.70;;;;;;;20.55;30.49;102168.44;7311336;19;129329;-53
2022/03/16 05:29:35;;;;;;;2.30;1.50;;;;;;;20.57;30.48;102171.81;7310225;19;129558;-51
2022/03/16 05:32:02;;;;;;;2.80;1.58;;;;;;;20.56;30.01;102170.09;7311708;19;130875;-54
2022/03/16 05:34:29;;;;;;;3.17;1.70;;;;;;;20.53;30.42;102159.47;7311580;19;129351;-48
2022/03/16 05:36:57;;;;;;;1.92;1.50;;;;;;;20.51;29.99;102156.06;7310578;19;128883;-50
2022/03/16 05:39:23;;;;;;;1.75;1.40;;;;;;;20.47;30.50;102163.16;7311315;19;129871;-52
2022/03/16 05:41:50;;;;;;;2.17;1.60;;;;;;;20.43;30.26;102150.81;7310858;19;130104;-50
2022/03/16 05:44:17;;;;;;;1.83;1.27;;;;;;;20.38;30.08;102157.03;7309769;19;129041;-51
2022/03/16 05:46:44;;;;;;;3.20;1.85;;;;;;;20.34;30.15;102149.38;7311596;19;129883;-53
2022/03/16 05:49:11;;;;;;;3.35;1.75;;;;;;;20.28;30.28;102140.88;7310282;19;130340;-51
2022/03/16 05:51:37;;;;;;;4.10;1.70;;;;;;;20.22;30.49;102130.66;7310000;19;131206;-52
2022/03/16 05:54:04;;;;;;;1.90;1.38;;;;;;;20.17;30.16;102133.31;7310449;19;128806;-52
2022/03/16 05:56:32;;;;;;;2.33;1.50;;;;;;;20.11;30.51;102139.75;7309755;19;129149;-51
2022/03/16 05:58:58;;;;;;;1.70;1.27;;;;;;;20.05;30.75;102135.94;7308245;19;130147;-52
2022/03/16 06:01:25;;;;;;;2.53;1.40;;;;;;;19.99;30.73;102136.84;7309055;19;129574;-50
2022/03/16 06:03:53;;;;;;;2.40;1.52;;;;;;;19.93;30.80;102141.38;7309630;19;129709;-51
2022/03/16 06:06:20;;;;;;;2.60;1.45;;;;;;;19.88;30.65;102149.50;7308630;19;130545;-53
2022/03/16 06:08:47;;;;;;;2.05;1.30;;;;;;;19.82;30.92;102148.50;7310177;19;129637;-49
2022/03/16 06:11:14;;;;;;;3.85;1.73;;;;;;;19.78;30.74;102151.94;7308733;19;129945;-48
2022/03/16 06:13:41;;;;;;;3.33;1.52;;;;;;;19.73;30.79;102135.09;7306972;19;129227;-50
2022/03/16 06:16:07;;;;;;;2.47;1.90;;;;;;;19.67;30.88;102146.03;7304279;19;130125;-49
2022/03/16 06:18:34;;;;;;;2.03;1.60;;;;;;;19.65;31.04;102152.88;7306290;19;129946;-50
2022/03/16 06:21:01;;;;;;;4.38;2.00;;;;;;;19.61;30.65;102146.91;7307198;19;129843;-48
2022/03/16 06:23:29;;;;;;;2.85;1.63;;;;;;;19.56;30.62;102149.53;7305803;19;129553;-48
2022/03/16 06:25:55;;;;;;;2.78;1.60;;;;;;;19.52;30.82;102137.16;7304978;19;130027;-51
2022/03/16 06:28:23;;;;;;;4.05;2.00;;;;;;;19.47;31.09;102140.59;7307632;19;129675;-50
2022/03/16 06:30:50;;;;;;;5.45;2.08;;;;;;;19.45;31.08;102142.75;7305295;19;129915;-49
2022/03/16 06:33:17;;;;;;;2.85;2.05;;;;;;;19.45;31.06;102144.66;7307969;19;129450;-52
2022/03/16 06:35:44;;;;;;;4.10;1.98;;;;;;;19.46;31.05;102132.50;7308966;19;129865;-48
2022/03/16 06:38:11;;;;;;;4.10;2.38;;;;;;;19.48;30.83;102141.44;7308083;19;129605;-49
2022/03/16 06:40:38;;;;;;;2.42;1.98;;;;;;;19.52;30.61;102139.94;7306857;19;129846;-48
2022/03/16 06:43:05;;;;;;;6.95;2.30;;;;;;;19.57;30.41;102139.25;7308061;19;129424;-50
2022/03/16 06:45:32;;;;;;;4.13;2.13;;;;;;;19.64;30.73;102143.72;7305525;19;130229;-51
2022/03/16 06:48:00;;;;;;;3.28;1.73;;;;;;;19.72;30.60;102144.50;7305026;19;129554;-51
2022/03/16 06:50:28;;;;;;;5.93;2.05;;;;;;;19.79;30.36;102150.88;7300188;19;130036;-50
2022/03/16 06:52:56;;;;;;;4.13;2.03;;;;;;;19.83;30.36;102144.63;7306983;19;129906;-53
2022/03/16 06:55:23;;;;;;;3.25;1.90;;;;;;;19.87;30.53;102155.31;7303194;19;129781;-51
2022/03/16 06:57:50;;;;;;;5.45;1.80;;;;;;;19.89;30.28;102148.44;7308548;19;131234;-54
2022/03/16 07:00:17;;;;;;;4.00;1.73;;;;;;;19.90;30.44;102150.16;7311662;19;131009;-51
2022/03/16 07:02:55;;;;;;;5.05;1.85;;;;;;;19.93;30.42;102151.63;7309932;19;129763;-50
2022/03/16 07:05:27;;;;;;;3.13;1.73;;;;;;;19.93;30.25;102143.28;7313088;19;129646;-52
2022/03/16 07:07:58;;;;;;;3.47;1.50;;;;;;;19.93;30.54;102143.28;7314640;19;130271;-50
2022/03/16 07:10:27;;;;;;;4.30;1.60;;;;;;;19.92;30.38;102147.13;7315599;19;130733;-54
2022/03/16 07:12:54;;;;;;;4.05;1.45;;;;;;;19.92;30.20;102142.44;7315823;19;129094;-54
2022/03/16 07:15:21;;;;;;;6.25;1.85;;;;;;;19.91;30.20;102135.19;7313385;19;129356;-51
2022/03/16 07:17:48;;;;;;;4.68;1.48;;;;;;;19.91;30.64;102135.19;7313631;19;130588;-50
2022/03/16 07:20:15;;;;;;;4.05;2.03;;;;;;;19.90;30.19;102133.47;7313597;19;130106;-50
2022/03/16 07:22:42;;;;;;;3.00;1.60;;;;;;;19.90;30.59;102138.16;7315385;19;130431;-51
2022/03/16 07:25:24;;;;;;;2.53;1.50;;;;;;;19.90;30.55;102139.03;7312643;19;129419;-50
2022/03/16 07:27:51;;;;;;;5.85;1.48;;;;;;;19.89;30.72;102142.88;7311472;19;130234;-51
2022/03/16 07:30:17;;;;;;;2.25;1.50;;;;;;;19.89;30.26;102139.25;7313926;19;130489;-52
2022/03/16 07:32:44;;;;;;;3.47;1.92;;;;;;;19.90;30.58;102140.94;7314541;19;129021;-52
2022/03/16 07:35:11;;;;;;;3.25;1.80;;;;;;;19.91;30.24;102146.31;7315856;19;129538;-50
2022/03/16 07:37:39;;;;;;;2.78;1.20;;;;;;;19.92;30.19;102148.00;7314029;19;129576;-53
2022/03/16 07:40:06;;;;;;;2.40;1.55;;;;;;;19.95;30.47;102155.03;7312119;19;129965;-50
2022/03/16 07:42:35;;;;;;;2.13;1.42;;;;;;;19.96;30.67;102153.94;7313344;19;129133;-51
2022/03/16 07:45:05;;;;;;;3.22;1.30;;;;;;;19.98;30.25;102151.81;7312438;19;129721;-51
2022/03/16 07:47:32;;;;;;;2.58;1.45;;;;;;;20.01;30.42;102147.75;7312640;19;129487;-53
2022/03/16 07:50:07;;;;;;;2.97;1.50;;;;;;;20.03;30.41;102153.94;7313687;19;129466;-51
2022/03/16 07:52:34;;;;;;;3.67;1.42;;;;;;;20.02;30.41;102143.91;7309321;19;130527;-53
2022/03/16 07:55:02;;;;;;;2.67;1.40;;;;;;;20.06;30.29;102150.72;7313066;19;129264;-54
2022/03/16 07:57:29;;;;;;;3.45;1.60;;;;;;;20.11;30.07;102146.19;7309921;19;130214;-54
2022/03/16 07:59:56;;;;;;;2.40;1.52;;;;;;;20.17;30.28;102144.41;7312967;19;130283;-53
2022/03/16 08:02:23;;;;;;;2.88;1.48;;;;;;;20.24;30.35;102142.41;7313031;19;128934;-53
2022/03/16 08:04:50;;;;;;;3.95;1.42;;;;;;;20.43;29.97;102148.03;7313010;19;128983;-52
2022/03/16 08:07:16;;;;;;;2.83;1.30;;;;;;;20.83;29.34;102152.34;7311414;19;130026;-52
2022/03/16 08:09:43;;;;;;;4.70;1.52;;;;;;;21.78;28.64;102150.88;7312912;19;130081;-52
2022/03/16 08:12:10;;;;;;;3.75;1.40;;;;;;;22.78;27.14;102154.94;7310000;19;129513;-53
2022/03/16 08:14:37;;;;;;;3.78;1.67;;;;;;;23.53;26.00;102144.75;7313052;19;129166;-58
2022/03/16 08:17:04;;;;;;;4.43;1.48;;;;;;;24.12;25.58;102152.00;7314068;19;131791;-54
2022/03/16 08:19:31;;;;;;;1.67;1.40;;;;;;;24.62;24.73;102149.41;7312294;19;130622;-53
2022/03/16 08:21:57;;;;;;;2.67;1.35;;;;;;;25.05;24.26;102158.97;7313010;19;129303;-57
2022/03/16 08:24:24;;;;;;;5.70;1.67;;;;;;;25.38;23.59;102145.06;7313421;19;129587;-56
2022/03/16 08:27:11;;;;;;;4.88;1.50;;;;;;;25.60;23.43;102153.47;7311284;19;133462;-56
2022/03/16 08:29:38;;;;;;;2.92;1.30;;;;;;;25.59;23.57;102160.19;7310932;19;129514;-55
2022/03/16 08:32:05;;;;;;;3.10;1.52;;;;;;;25.31;23.69;102150.88;7313387;19;128934;-54
2022/03/16 08:34:33;;;;;;;6.00;1.50;;;;;;;24.48;24.30;102158.19;7314783;19;129435;-53
2022/03/16 08:37:00;;;;;;;1.90;1.48;;;;;;;23.86;25.00;102148.75;7311174;19;130510;-51
2022/03/16 08:39:29;;;;;;;3.20;1.40;;;;;;;23.39;25.48;102151.75;7310022;19;129545;-52
2022/03/16 08:41:56;;;;;;;4.07;1.38;;;;;;;22.99;25.96;102159.06;7312740;19;129583;-56
2022/03/16 08:44:23;;;;;;;3.92;1.38;;;;;;;22.65;26.51;102144.91;7311834;19;130092;-50
2022/03/16 08:46:51;;;;;;;2.75;1.40;;;;;;;22.37;26.66;102158.50;7309449;19;130567;-53
2022/03/16 08:49:18;;;;;;;2.20;1.38;;;;;;;22.14;26.73;102156.50;7310742;19;129371;-54
2022/03/16 08:51:45;;;;;;;4.65;1.50;;;;;;;21.93;26.92;102160.69;7311071;19;129166;-53
2022/03/16 08:54:12;;;;;;;5.43;1.25;;;;;;;21.74;27.28;102152.44;7311841;19;130940;-56
2022/03/16 08:56:39;;;;;;;5.22;1.33;;;;;;;21.60;27.67;102145.34;7313372;19;129581;-53
2022/03/16 08:59:06;;;;;;;3.10;1.45;;;;;;;21.47;27.64;102149.16;7310690;19;129838;-56
2022/03/16 09:01:34;;;;;;;3.67;1.45;;;;;;;21.35;28.23;102144.38;7312333;19;129588;-49
2022/03/16 09:04:02;;;;;;;3.92;1.50;;;;;;;21.22;27.95;102137.06;7312130;19;128856;-51
2022/03/16 09:06:29;;;;;;;3.40;1.38;;;;;;;21.14;28.37;102145.75;7310819;19;131268;-53
2022/03/16 09:08:56;;;;;;;3.75;1.60;;;;;;;21.05;28.25;102144.34;7313044;19;130028;-53
2022/03/16 09:11:23;;;;;;;5.07;1.40;;;;;;;20.95;28.89;102132.91;7312909;19;128906;-50
2022/03/16 09:13:50;;;;;;;4.50;1.50;;;;;;;20.86;28.93;102140.75;7312533;19;129098;-52
2022/03/16 09:16:17;;;;;;;2.92;1.27;;;;;;;20.79;28.62;102146.38;7312988;19;129486;-50
2022/03/16 09:18:47;;;;;;;5.70;1.30;;;;;;;20.72;29.13;102145.56;7311826;19;129825;-51
2022/03/16 09:21:14;;;;;;;2.80;1.48;;;;;;;20.65;29.05;102142.03;7311800;19;129178;-53
2022/03/16 09:23:42;;;;;;;1.90;1.08;;;;;;;20.58;28.94;102148.50;7311020;19;129297;-53
2022/03/16 09:26:08;;;;;;;5.07;1.75;;;;;;;20.53;29.51;102151.13;7310426;19;129602;-52
2022/03/16 09:28:35;;;;;;;3.30;1.48;;;;;;;20.48;29.40;102142.59;7312751;19;130451;-52
2022/03/16 09:31:02;;;;;;;1.73;1.30;;;;;;;20.43;29.37;102140.53;7313175;19;129568;-51
2022/03/16 09:33:30;;;;;;;2.35;1.15;;;;;;;20.38;29.30;102140.34;7312346;19;129329;-51
2022/03/16 09:35:57;;;;;;;2.65;1.83;;;;;;;20.35;29.38;102139.97;7312106;19;131219;-51
2022/03/16 09:38:24;;;;;;;4.38;1.58;;;;;;;20.34;29.53;102139.13;7308951;19;130144;-49
2022/03/16 09:40:57;;;;;;;4.68;1.80;;;;;;;20.34;29.59;102132.69;7312580;19;128824;-52
2022/03/16 09:43:24;;;;;;;5.13;1.63;;;;;;;20.33;29.58;102139.34;7311569;19;129435;-50
2022/03/16 09:46:02;;;;;;;2.50;1.70;;;;;;;20.32;29.37;102132.06;7310869;19;130674;-54
2022/03/16 09:48:31;;;;;;;3.33;1.85;;;;;;;20.30;29.50;102132.31;7311904;19;129631;-51
2022/03/16 09:50:59;;;;;;;5.90;1.92;;;;;;;20.28;29.77;102129.78;7310244;19;128857;-51
2022/03/16 09:53:26;;;;;;;3.38;1.88;;;;;;;20.26;29.62;102125.50;7312218;19;129000;-50
2022/03/16 09:55:54;;;;;;;2.92;1.60;;;;;;;20.24;29.85;102128.53;7311128;19;131228;-50
2022/03/16 09:58:21;;;;;;;4.93;2.00;;;;;;;20.23;29.90;102121.25;7308741;19;130428;-51
2022/03/16 10:00:56;;;;;;;2.75;1.58;;;;;;;20.21;29.70;102117.84;7310115;19;129367;-51
2022/03/16 10:03:33;;;;;;;6.10;1.80;;;;;;;20.19;29.92;102113.63;7311078;19;129700;-49
2022/03/16 10:06:00;;;;;;;3.95;1.60;;;;;;;20.16;30.01;102114.94;7308629;19;130677;-49
2022/03/16 10:08:29;;;;;;;3.70;1.50;;;;;;;20.17;30.04;102115.75;7310756;19;129586;-50
2022/03/16 10:14:04;;;;;;;5.13;1.80;;;;;;;20.11;29.94;102125.84;7310516;19;130611;-49
2022/03/16 10:17:43;;;;;;;3.22;1.75;;;;;;;20.08;29.72;102123.53;7311066;19;129473;-51
2022/03/16 10:19:23;;;;;;;4.72;1.30;;;;;;;20.04;30.07;102114.81;7309900;19;129436;-51
2022/03/16 10:22:00;;;;;;;5.35;1.85;;;;;;;20.02;29.93;102111.41;7310457;19;130507;-52
2022/03/16 10:24:30;;;;;;;7.93;1.55;;;;;;;19.99;29.96;102117.41;7310061;19;129091;-50
2022/03/16 10:26:59;;;;;;;3.17;1.90;;;;;;;19.96;29.97;102104.78;7307766;19;129513;-49
2022/03/16 10:29:31;;;;;;;3.60;1.88;;;;;;;19.94;30.18;102106.94;7309422;19;129500;-55
2022/03/16 10:32:03;;;;;;;4.32;2.05;;;;;;;19.93;30.58;102109.97;7309977;19;129721;-60
2022/03/16 10:34:30;;;;;;;4.50;1.88;;;;;;;19.90;30.42;102108.50;7312077;19;129356;-58
2022/03/16 10:37:09;;;;;;;6.35;2.15;;;;;;;19.88;30.37;102102.31;7317026;19;129759;-56
2022/03/16 10:39:37;;;;;;;7.13;2.78;;;;;;;19.88;30.35;102101.47;7317622;19;129641;-62
2022/03/16 10:48:22;;;;;;;10.77;2.10;;;;;;;19.84;30.84;102110.25;7310283;19;129649;-50
2022/03/16 10:50:56;;;;;;;6.15;2.33;;;;;;;19.84;30.78;102113.03;7310144;19;129971;-53
2022/03/16 10:53:29;;;;;;;9.82;2.33;;;;;;;19.85;31.12;102113.84;7312295;19;129343;-59
2022/03/16 10:55:59;;;;;;;9.65;2.40;;;;;;;19.84;31.37;102121.34;7310664;19;129110;-67
2022/03/16 10:58:27;;;;;;;12.25;2.72;;;;;;;19.83;31.11;102122.44;7312448;19;130740;-54
2022/03/16 11:00:56;;;;;;;9.85;2.47;;;;;;;19.82;31.62;102119.84;7312063;19;129865;-71
2022/03/16 11:03:26;;;;;;;10.75;2.40;;;;;;;19.82;31.33;102119.84;7313613;19;130015;-65
2022/03/16 11:05:55;;;;;;;15.13;2.47;;;;;;;19.82;31.55;102125.41;7308961;19;129789;-51
2022/03/16 11:08:25;;;;;;;10.68;2.42;;;;;;;19.81;31.53;102127.34;7311530;19;129479;-54
2022/03/16 11:10:56;;;;;;;8.07;2.00;;;;;;;19.81;31.66;102123.75;7312868;19;130250;-53
2022/03/16 11:13:32;;;;;;;6.38;2.10;;;;;;;19.80;31.84;102128.44;7313497;19;129616;-56
2022/03/16 11:16:00;;;;;;;6.28;2.17;;;;;;;19.79;32.04;102117.56;7312297;19;129989;-52
2022/03/16 11:18:27;;;;;;;4.85;1.80;;;;;;;19.80;32.10;102127.59;7310762;19;130032;-69
2022/03/16 11:20:56;;;;;;;10.55;2.53;;;;;;;19.77;31.75;102128.03;7308324;19;130377;-56
2022/03/16 11:26:51;;;;;;;7.57;2.10;;;;;;;19.68;32.04;102130.22;7314278;19;128849;-57
2022/03/16 11:29:52;;;;;;;6.05;2.00;;;;;;;19.63;31.86;102127.28;7313283;19;131029;-52
2022/03/16 11:32:20;;;;;;;6.15;1.70;;;;;;;19.58;32.05;102113.22;7314589;19;130032;-53